sensor_id;sensor_type;location;lat;lon;timestamp;temperature;humidity
24814;DHT22;12904;50.088;11.414;2024-01-30T00:01:13;0.60;99.90
24814;DHT22;12904;50.088;11.414;2024-01-30T00:03:39;0.60;99.90
24814;DHT22;12904;50.088;11.414;2024-01-30T00:06:04;0.70;99.90
24814;DHT22;12904;50.088;11.414;2024-01-30T00:08:30;0.70;99.90
24814;DHT22;12904;50.088;11.414;2024-01-30T00:10:56;0.70;99.90
24814;DHT22;12904;50.088;11.414;2024-01-30T00:13:21;0.70;99.90
24814;DHT22;12904;50.088;11.414;2024-01-30T00:15:48;0.70;99.90
24814;DHT22;12904;50.088;11.414;2024-01-30T00:18:14;0.70;99.90
24814;DHT22;12904;50.088;11.414;2024-01-30T00:20:40;0.70;99.90
24814;DHT22;12904;50.088;11.414;2024-01-30T00:23:05;0.70;99.90
24814;DHT22;12904;50.088;11.414;2024-01-30T00:25:31;0.70;99.90
24814;DHT22;12904;50.088;11.414;2024-01-30T00:27:58;0.60;99.90
24814;DHT22;12904;50.088;11.414;2024-01-30T00:30:24;0.60;99.90
24814;DHT22;12904;50.088;11.414;2024-01-30T00:32:50;0.60;99.90
24814;DHT22;12904;50.088;11.414;2024-01-30T00:35:15;0.50;99.90
24814;DHT22;12904;50.088;11.414;2024-01-30T00:37:41;0.50;99.90
24814;DHT22;12904;50.088;11.414;2024-01-30T00:40:07;0.50;99.90
24814;DHT22;12904;50.088;11.414;2024-01-30T00:42:33;0.50;99.90
24814;DHT22;12904;50.088;11.414;2024-01-30T00:44:59;0.50;99.90
24814;DHT22;12904;50.088;11.414;2024-01-30T00:47:24;0.50;99.90
24814;DHT22;12904;50.088;11.414;2024-01-30T00:49:50;0.40;99.90
24814;DHT22;12904;50.088;11.414;2024-01-30T00:52:15;0.40;99.90
24814;DHT22;12904;50.088;11.414;2024-01-30T00:54:41;0.40;99.90
24814;DHT22;12904;50.088;11.414;2024-01-30T00:57:07;0.40;99.90
24814;DHT22;12904;50.088;11.414;2024-01-30T00:59:33;0.40;99.90
24814;DHT22;12904;50.088;11.414;2024-01-30T01:01:58;0.30;99.90
24814;DHT22;12904;50.088;11.414;2024-01-30T01:04:24;0.30;99.90
24814;DHT22;12904;50.088;11.414;2024-01-30T01:06:52;0.30;99.90
24814;DHT22;12904;50.088;11.414;2024-01-30T01:09:17;0.30;99.90
24814;DHT22;12904;50.088;11.414;2024-01-30T01:11:43;0.30;99.90
24814;DHT22;12904;50.088;11.414;2024-01-30T01:14:09;0.30;99.90
24814;DHT22;12904;50.088;11.414;2024-01-30T01:16:35;0.30;99.90
24814;DHT22;12904;50.088;11.414;2024-01-30T01:19:00;0.20;99.90
24814;DHT22;12904;50.088;11.414;2024-01-30T01:21:26;0.30;99.90
24814;DHT22;12904;50.088;11.414;2024-01-30T01:23:52;0.30;99.90
24814;DHT22;12904;50.088;11.414;2024-01-30T01:26:17;0.30;99.90
24814;DHT22;12904;50.088;11.414;2024-01-30T01:28:43;0.30;99.90
24814;DHT22;12904;50.088;11.414;2024-01-30T01:31:09;0.30;99.90
24814;DHT22;12904;50.088;11.414;2024-01-30T01:33:35;0.20;99.90
24814;DHT22;12904;50.088;11.414;2024-01-30T01:36:02;0.20;99.90
24814;DHT22;12904;50.088;11.414;2024-01-30T01:38:28;0.20;99.90
24814;DHT22;12904;50.088;11.414;2024-01-30T01:40:54;0.30;99.90
24814;DHT22;12904;50.088;11.414;2024-01-30T01:43:19;0.30;99.90
24814;DHT22;12904;50.088;11.414;2024-01-30T01:45:45;0.30;99.90
24814;DHT22;12904;50.088;11.414;2024-01-30T01:48:11;0.30;99.90
24814;DHT22;12904;50.088;11.414;2024-01-30T01:50:38;0.30;99.90
24814;DHT22;12904;50.088;11.414;2024-01-30T01:53:06;0.20;99.90
24814;DHT22;12904;50.088;11.414;2024-01-30T01:55:34;0.20;99.90
24814;DHT22;12904;50.088;11.414;2024-01-30T01:58:00;0.20;99.90
24814;DHT22;12904;50.088;11.414;2024-01-30T02:00:26;0.20;99.90
24814;DHT22;12904;50.088;11.414;2024-01-30T02:02:53;0.20;99.90
24814;DHT22;12904;50.088;11.414;2024-01-30T02:05:20;0.20;99.90
24814;DHT22;12904;50.088;11.414;2024-01-30T02:07:46;0.20;99.90
24814;DHT22;12904;50.088;11.414;2024-01-30T02:10:12;0.10;99.90
24814;DHT22;12904;50.088;11.414;2024-01-30T02:12:38;0.10;99.90
24814;DHT22;12904;50.088;11.414;2024-01-30T02:15:04;0.10;99.90
24814;DHT22;12904;50.088;11.414;2024-01-30T02:17:30;0.10;99.90
24814;DHT22;12904;50.088;11.414;2024-01-30T02:19:56;0.10;99.90
24814;DHT22;12904;50.088;11.414;2024-01-30T02:22:22;0.10;99.90
24814;DHT22;12904;50.088;11.414;2024-01-30T02:24:48;0.10;99.90
24814;DHT22;12904;50.088;11.414;2024-01-30T02:27:13;0.10;99.90
24814;DHT22;12904;50.088;11.414;2024-01-30T02:29:39;0.10;99.90
24814;DHT22;12904;50.088;11.414;2024-01-30T02:32:05;0.10;99.90
24814;DHT22;12904;50.088;11.414;2024-01-30T02:34:31;0.10;99.90
24814;DHT22;12904;50.088;11.414;2024-01-30T02:36:57;0.10;99.90
24814;DHT22;12904;50.088;11.414;2024-01-30T02:39:23;0.20;99.90
24814;DHT22;12904;50.088;11.414;2024-01-30T02:41:48;0.20;99.90
24814;DHT22;12904;50.088;11.414;2024-01-30T02:44:14;0.20;99.90
24814;DHT22;12904;50.088;11.414;2024-01-30T02:46:39;0.10;99.90
24814;DHT22;12904;50.088;11.414;2024-01-30T02:49:05;0.10;99.90
24814;DHT22;12904;50.088;11.414;2024-01-30T02:51:31;0.10;99.90
24814;DHT22;12904;50.088;11.414;2024-01-30T02:53:57;0.10;99.90
24814;DHT22;12904;50.088;11.414;2024-01-30T02:56:22;0.00;99.90
24814;DHT22;12904;50.088;11.414;2024-01-30T02:58:48;0.00;99.90
24814;DHT22;12904;50.088;11.414;2024-01-30T03:01:13;0.00;99.90
24814;DHT22;12904;50.088;11.414;2024-01-30T03:03:39;0.10;99.90
24814;DHT22;12904;50.088;11.414;2024-01-30T03:06:06;0.00;99.90
24814;DHT22;12904;50.088;11.414;2024-01-30T03:08:32;0.10;99.90
24814;DHT22;12904;50.088;11.414;2024-01-30T03:11:00;0.00;99.90
24814;DHT22;12904;50.088;11.414;2024-01-30T03:13:25;0.00;99.90
24814;DHT22;12904;50.088;11.414;2024-01-30T03:15:51;0.00;99.90
24814;DHT22;12904;50.088;11.414;2024-01-30T03:18:17;-0.10;99.90
24814;DHT22;12904;50.088;11.414;2024-01-30T03:20:43;0.00;99.90
24814;DHT22;12904;50.088;11.414;2024-01-30T03:23:09;0.00;99.90
24814;DHT22;12904;50.088;11.414;2024-01-30T03:25:34;0.00;99.90
24814;DHT22;12904;50.088;11.414;2024-01-30T03:28:00;0.00;99.90
24814;DHT22;12904;50.088;11.414;2024-01-30T03:30:26;0.00;99.90
24814;DHT22;12904;50.088;11.414;2024-01-30T03:32:51;0.00;99.90
24814;DHT22;12904;50.088;11.414;2024-01-30T03:35:19;-0.10;99.90
24814;DHT22;12904;50.088;11.414;2024-01-30T03:37:44;-0.10;99.90
24814;DHT22;12904;50.088;11.414;2024-01-30T03:40:10;-0.10;99.90
24814;DHT22;12904;50.088;11.414;2024-01-30T03:42:36;-0.10;99.90
24814;DHT22;12904;50.088;11.414;2024-01-30T03:45:02;-0.10;99.90
24814;DHT22;12904;50.088;11.414;2024-01-30T03:47:28;-0.10;99.90
24814;DHT22;12904;50.088;11.414;2024-01-30T03:49:54;-0.10;99.90
24814;DHT22;12904;50.088;11.414;2024-01-30T03:52:19;0.00;99.90
24814;DHT22;12904;50.088;11.414;2024-01-30T03:54:45;0.00;99.90
24814;DHT22;12904;50.088;11.414;2024-01-30T03:57:11;0.10;99.90
24814;DHT22;12904;50.088;11.414;2024-01-30T03:59:36;0.10;99.90
24814;DHT22;12904;50.088;11.414;2024-01-30T04:02:02;0.10;99.90
24814;DHT22;12904;50.088;11.414;2024-01-30T04:04:28;0.10;99.90
24814;DHT22;12904;50.088;11.414;2024-01-30T04:06:53;0.10;99.90
24814;DHT22;12904;50.088;11.414;2024-01-30T04:09:19;0.00;99.90
24814;DHT22;12904;50.088;11.414;2024-01-30T04:11:44;-0.10;99.90
24814;DHT22;12904;50.088;11.414;2024-01-30T04:14:10;-0.10;99.90
24814;DHT22;12904;50.088;11.414;2024-01-30T04:16:36;-0.10;99.90
24814;DHT22;12904;50.088;11.414;2024-01-30T04:19:02;-0.20;99.90
24814;DHT22;12904;50.088;11.414;2024-01-30T04:21:27;-0.20;99.90
24814;DHT22;12904;50.088;11.414;2024-01-30T04:23:53;-0.20;99.90
24814;DHT22;12904;50.088;11.414;2024-01-30T04:26:19;-0.20;99.90
24814;DHT22;12904;50.088;11.414;2024-01-30T04:28:45;-0.20;99.90
24814;DHT22;12904;50.088;11.414;2024-01-30T04:31:10;-0.30;99.90
24814;DHT22;12904;50.088;11.414;2024-01-30T04:33:36;-0.30;99.90
24814;DHT22;12904;50.088;11.414;2024-01-30T04:36:02;-0.30;99.90
24814;DHT22;12904;50.088;11.414;2024-01-30T04:38:29;-0.30;99.90
24814;DHT22;12904;50.088;11.414;2024-01-30T04:40:54;-0.30;99.90
24814;DHT22;12904;50.088;11.414;2024-01-30T04:43:20;-0.40;99.90
24814;DHT22;12904;50.088;11.414;2024-01-30T04:45:47;-0.40;99.90
24814;DHT22;12904;50.088;11.414;2024-01-30T04:48:12;-0.40;99.90
24814;DHT22;12904;50.088;11.414;2024-01-30T04:50:39;-0.40;99.90
24814;DHT22;12904;50.088;11.414;2024-01-30T04:53:04;-0.50;99.90
24814;DHT22;12904;50.088;11.414;2024-01-30T04:55:30;-0.50;99.90
24814;DHT22;12904;50.088;11.414;2024-01-30T04:57:55;-0.60;99.90
24814;DHT22;12904;50.088;11.414;2024-01-30T05:00:21;-0.60;99.90
24814;DHT22;12904;50.088;11.414;2024-01-30T05:02:47;-0.60;99.90
24814;DHT22;12904;50.088;11.414;2024-01-30T05:05:12;-0.60;99.90
24814;DHT22;12904;50.088;11.414;2024-01-30T05:07:40;-0.60;99.90
24814;DHT22;12904;50.088;11.414;2024-01-30T05:10:06;-0.70;99.90
24814;DHT22;12904;50.088;11.414;2024-01-30T05:12:32;-0.60;99.90
24814;DHT22;12904;50.088;11.414;2024-01-30T05:14:57;-0.60;99.90
24814;DHT22;12904;50.088;11.414;2024-01-30T05:17:23;-0.60;99.90
24814;DHT22;12904;50.088;11.414;2024-01-30T05:19:49;-0.60;99.90
24814;DHT22;12904;50.088;11.414;2024-01-30T05:22:14;-0.50;99.90
24814;DHT22;12904;50.088;11.414;2024-01-30T05:24:41;-0.50;99.90
24814;DHT22;12904;50.088;11.414;2024-01-30T05:27:08;-0.40;99.90
24814;DHT22;12904;50.088;11.414;2024-01-30T05:29:33;-0.30;99.90
24814;DHT22;12904;50.088;11.414;2024-01-30T05:31:59;-0.30;99.90
24814;DHT22;12904;50.088;11.414;2024-01-30T05:34:25;-0.20;99.90
24814;DHT22;12904;50.088;11.414;2024-01-30T05:36:50;0.00;99.90
24814;DHT22;12904;50.088;11.414;2024-01-30T05:39:16;0.10;99.90
24814;DHT22;12904;50.088;11.414;2024-01-30T05:41:42;0.20;99.90
24814;DHT22;12904;50.088;11.414;2024-01-30T05:44:07;0.30;99.90
24814;DHT22;12904;50.088;11.414;2024-01-30T05:46:35;0.30;99.90
24814;DHT22;12904;50.088;11.414;2024-01-30T05:49:00;0.30;99.90
24814;DHT22;12904;50.088;11.414;2024-01-30T05:51:26;0.40;99.90
24814;DHT22;12904;50.088;11.414;2024-01-30T05:53:53;0.40;99.90
24814;DHT22;12904;50.088;11.414;2024-01-30T05:56:19;0.50;99.90
24814;DHT22;12904;50.088;11.414;2024-01-30T05:58:44;0.50;99.90
24814;DHT22;12904;50.088;11.414;2024-01-30T06:01:10;0.50;99.90
24814;DHT22;12904;50.088;11.414;2024-01-30T06:03:35;0.50;99.90
24814;DHT22;12904;50.088;11.414;2024-01-30T06:06:01;0.50;99.90
24814;DHT22;12904;50.088;11.414;2024-01-30T06:08:27;0.60;99.90
24814;DHT22;12904;50.088;11.414;2024-01-30T06:10:52;0.60;99.90
24814;DHT22;12904;50.088;11.414;2024-01-30T06:13:18;0.60;99.90
24814;DHT22;12904;50.088;11.414;2024-01-30T06:15:43;0.60;99.90
24814;DHT22;12904;50.088;11.414;2024-01-30T06:18:09;0.60;99.90
24814;DHT22;12904;50.088;11.414;2024-01-30T06:20:35;0.70;99.90
24814;DHT22;12904;50.088;11.414;2024-01-30T06:23:01;0.70;99.90
24814;DHT22;12904;50.088;11.414;2024-01-30T06:25:27;0.80;99.90
24814;DHT22;12904;50.088;11.414;2024-01-30T06:27:52;0.80;99.90
24814;DHT22;12904;50.088;11.414;2024-01-30T06:30:18;0.90;99.90
24814;DHT22;12904;50.088;11.414;2024-01-30T06:32:44;0.90;99.90
24814;DHT22;12904;50.088;11.414;2024-01-30T06:35:09;0.90;99.90
24814;DHT22;12904;50.088;11.414;2024-01-30T06:37:36;0.90;99.90
24814;DHT22;12904;50.088;11.414;2024-01-30T06:40:02;1.00;99.90
24814;DHT22;12904;50.088;11.414;2024-01-30T06:42:30;0.90;99.90
24814;DHT22;12904;50.088;11.414;2024-01-30T06:44:55;1.00;99.90
24814;DHT22;12904;50.088;11.414;2024-01-30T06:47:21;1.00;99.90
24814;DHT22;12904;50.088;11.414;2024-01-30T06:49:47;1.00;99.90
24814;DHT22;12904;50.088;11.414;2024-01-30T06:52:12;1.00;99.90
24814;DHT22;12904;50.088;11.414;2024-01-30T06:54:38;1.00;99.90
24814;DHT22;12904;50.088;11.414;2024-01-30T06:57:05;1.10;99.90
24814;DHT22;12904;50.088;11.414;2024-01-30T06:59:34;1.00;99.90
24814;DHT22;12904;50.088;11.414;2024-01-30T07:02:00;1.00;99.90
24814;DHT22;12904;50.088;11.414;2024-01-30T07:04:25;1.00;99.90
24814;DHT22;12904;50.088;11.414;2024-01-30T07:06:54;0.90;99.90
24814;DHT22;12904;50.088;11.414;2024-01-30T07:09:19;0.90;99.90
24814;DHT22;12904;50.088;11.414;2024-01-30T07:11:45;0.80;99.90
24814;DHT22;12904;50.088;11.414;2024-01-30T07:14:11;0.80;99.90
24814;DHT22;12904;50.088;11.414;2024-01-30T07:16:36;0.80;99.90
24814;DHT22;12904;50.088;11.414;2024-01-30T07:19:02;0.70;99.90
24814;DHT22;12904;50.088;11.414;2024-01-30T07:21:28;0.70;99.90
24814;DHT22;12904;50.088;11.414;2024-01-30T07:23:57;0.80;99.90
24814;DHT22;12904;50.088;11.414;2024-01-30T07:26:23;0.80;99.90
24814;DHT22;12904;50.088;11.414;2024-01-30T07:28:48;0.80;99.90
24814;DHT22;12904;50.088;11.414;2024-01-30T07:31:15;0.90;99.90
24814;DHT22;12904;50.088;11.414;2024-01-30T07:33:41;0.90;99.90
24814;DHT22;12904;50.088;11.414;2024-01-30T07:36:07;1.00;99.90
24814;DHT22;12904;50.088;11.414;2024-01-30T07:38:32;1.00;99.90
24814;DHT22;12904;50.088;11.414;2024-01-30T07:40:58;1.10;99.90
24814;DHT22;12904;50.088;11.414;2024-01-30T07:43:24;1.20;99.90
24814;DHT22;12904;50.088;11.414;2024-01-30T07:45:50;1.20;99.90
24814;DHT22;12904;50.088;11.414;2024-01-30T07:48:15;1.30;99.90
24814;DHT22;12904;50.088;11.414;2024-01-30T07:50:41;1.40;99.90
24814;DHT22;12904;50.088;11.414;2024-01-30T07:53:07;1.40;99.90
24814;DHT22;12904;50.088;11.414;2024-01-30T07:55:32;1.50;99.90
24814;DHT22;12904;50.088;11.414;2024-01-30T07:57:58;1.60;99.90
24814;DHT22;12904;50.088;11.414;2024-01-30T08:00:27;1.70;99.90
24814;DHT22;12904;50.088;11.414;2024-01-30T08:02:54;1.70;99.90
24814;DHT22;12904;50.088;11.414;2024-01-30T08:05:21;1.80;99.90
24814;DHT22;12904;50.088;11.414;2024-01-30T08:07:48;1.80;99.90
24814;DHT22;12904;50.088;11.414;2024-01-30T08:10:14;1.90;99.90
24814;DHT22;12904;50.088;11.414;2024-01-30T08:12:40;1.90;99.90
24814;DHT22;12904;50.088;11.414;2024-01-30T08:15:06;2.00;99.90
24814;DHT22;12904;50.088;11.414;2024-01-30T08:17:33;2.00;99.90
24814;DHT22;12904;50.088;11.414;2024-01-30T08:19:58;2.10;99.90
24814;DHT22;12904;50.088;11.414;2024-01-30T08:22:24;2.10;99.90
24814;DHT22;12904;50.088;11.414;2024-01-30T08:24:50;2.20;99.90
24814;DHT22;12904;50.088;11.414;2024-01-30T08:27:15;2.30;99.90
24814;DHT22;12904;50.088;11.414;2024-01-30T08:29:41;2.30;99.90
24814;DHT22;12904;50.088;11.414;2024-01-30T08:32:07;2.40;99.90
24814;DHT22;12904;50.088;11.414;2024-01-30T08:34:33;2.40;99.90
24814;DHT22;12904;50.088;11.414;2024-01-30T08:36:58;2.40;99.90
24814;DHT22;12904;50.088;11.414;2024-01-30T08:39:24;2.40;99.90
24814;DHT22;12904;50.088;11.414;2024-01-30T08:41:50;2.50;99.90
24814;DHT22;12904;50.088;11.414;2024-01-30T08:44:16;2.50;99.90
24814;DHT22;12904;50.088;11.414;2024-01-30T08:46:43;2.60;99.90
24814;DHT22;12904;50.088;11.414;2024-01-30T08:49:08;2.70;99.90
24814;DHT22;12904;50.088;11.414;2024-01-30T08:51:34;2.80;99.90
24814;DHT22;12904;50.088;11.414;2024-01-30T08:54:00;2.90;99.90
24814;DHT22;12904;50.088;11.414;2024-01-30T08:56:26;3.10;99.90
24814;DHT22;12904;50.088;11.414;2024-01-30T08:58:52;3.20;99.90
24814;DHT22;12904;50.088;11.414;2024-01-30T09:01:18;3.20;99.90
24814;DHT22;12904;50.088;11.414;2024-01-30T09:03:43;3.40;99.90
24814;DHT22;12904;50.088;11.414;2024-01-30T09:06:11;3.50;99.90
24814;DHT22;12904;50.088;11.414;2024-01-30T09:08:37;3.60;99.90
24814;DHT22;12904;50.088;11.414;2024-01-30T09:11:13;3.60;99.90
24814;DHT22;12904;50.088;11.414;2024-01-30T09:13:39;3.60;99.90
24814;DHT22;12904;50.088;11.414;2024-01-30T09:16:05;3.70;99.90
24814;DHT22;12904;50.088;11.414;2024-01-30T09:18:31;3.80;99.90
24814;DHT22;12904;50.088;11.414;2024-01-30T09:20:57;3.90;99.90
24814;DHT22;12904;50.088;11.414;2024-01-30T09:23:24;4.00;99.90
24814;DHT22;12904;50.088;11.414;2024-01-30T09:25:50;4.10;99.90
24814;DHT22;12904;50.088;11.414;2024-01-30T09:28:17;4.20;99.90
24814;DHT22;12904;50.088;11.414;2024-01-30T09:30:43;4.30;99.90
24814;DHT22;12904;50.088;11.414;2024-01-30T09:33:08;4.40;99.90
24814;DHT22;12904;50.088;11.414;2024-01-30T09:35:35;4.50;99.90
24814;DHT22;12904;50.088;11.414;2024-01-30T09:38:02;4.50;99.90
24814;DHT22;12904;50.088;11.414;2024-01-30T09:40:28;4.60;99.90
24814;DHT22;12904;50.088;11.414;2024-01-30T09:42:54;4.80;99.90
24814;DHT22;12904;50.088;11.414;2024-01-30T09:45:24;4.70;99.90
24814;DHT22;12904;50.088;11.414;2024-01-30T09:47:50;4.70;99.90
24814;DHT22;12904;50.088;11.414;2024-01-30T09:50:17;4.70;99.90
24814;DHT22;12904;50.088;11.414;2024-01-30T09:52:46;4.50;99.90
24814;DHT22;12904;50.088;11.414;2024-01-30T09:55:12;4.50;99.90
24814;DHT22;12904;50.088;11.414;2024-01-30T09:57:41;4.40;99.90
24814;DHT22;12904;50.088;11.414;2024-01-30T10:00:06;4.30;99.90
24814;DHT22;12904;50.088;11.414;2024-01-30T10:02:35;4.30;99.90
24814;DHT22;12904;50.088;11.414;2024-01-30T10:05:01;4.30;99.90
24814;DHT22;12904;50.088;11.414;2024-01-30T10:07:27;4.40;99.90
24814;DHT22;12904;50.088;11.414;2024-01-30T10:09:53;4.40;99.90
24814;DHT22;12904;50.088;11.414;2024-01-30T10:12:22;4.40;99.90
24814;DHT22;12904;50.088;11.414;2024-01-30T10:14:47;4.40;99.90
24814;DHT22;12904;50.088;11.414;2024-01-30T10:17:13;4.40;99.90
24814;DHT22;12904;50.088;11.414;2024-01-30T10:19:40;4.50;99.90
24814;DHT22;12904;50.088;11.414;2024-01-30T10:22:06;4.50;99.90
24814;DHT22;12904;50.088;11.414;2024-01-30T10:24:33;4.60;99.90
24814;DHT22;12904;50.088;11.414;2024-01-30T10:26:59;4.60;99.90
24814;DHT22;12904;50.088;11.414;2024-01-30T10:29:25;4.60;99.90
24814;DHT22;12904;50.088;11.414;2024-01-30T10:32:03;4.70;99.90
24814;DHT22;12904;50.088;11.414;2024-01-30T10:34:29;4.70;99.90
24814;DHT22;12904;50.088;11.414;2024-01-30T10:39:39;4.70;99.90
24814;DHT22;12904;50.088;11.414;2024-01-30T10:42:05;4.80;99.90
24814;DHT22;12904;50.088;11.414;2024-01-30T10:44:37;4.80;99.90
24814;DHT22;12904;50.088;11.414;2024-01-30T10:47:07;4.90;99.90
24814;DHT22;12904;50.088;11.414;2024-01-30T10:49:37;5.00;99.90
24814;DHT22;12904;50.088;11.414;2024-01-30T10:52:04;5.00;99.90
24814;DHT22;12904;50.088;11.414;2024-01-30T10:54:31;5.10;99.90
24814;DHT22;12904;50.088;11.414;2024-01-30T10:57:00;5.10;99.90
24814;DHT22;12904;50.088;11.414;2024-01-30T10:59:28;5.10;99.90
24814;DHT22;12904;50.088;11.414;2024-01-30T11:01:54;5.10;99.90
24814;DHT22;12904;50.088;11.414;2024-01-30T11:04:19;5.10;99.90
24814;DHT22;12904;50.088;11.414;2024-01-30T11:06:49;5.20;99.90
24814;DHT22;12904;50.088;11.414;2024-01-30T11:09:17;5.20;99.90
24814;DHT22;12904;50.088;11.414;2024-01-30T11:11:58;5.30;99.90
24814;DHT22;12904;50.088;11.414;2024-01-30T11:14:28;5.40;99.90
24814;DHT22;12904;50.088;11.414;2024-01-30T11:16:57;5.30;99.90
24814;DHT22;12904;50.088;11.414;2024-01-30T11:19:30;5.40;99.90
24814;DHT22;12904;50.088;11.414;2024-01-30T11:21:56;5.50;99.90
24814;DHT22;12904;50.088;11.414;2024-01-30T11:24:25;5.40;99.90
24814;DHT22;12904;50.088;11.414;2024-01-30T11:26:56;5.40;99.90
24814;DHT22;12904;50.088;11.414;2024-01-30T11:29:29;5.40;99.90
24814;DHT22;12904;50.088;11.414;2024-01-30T11:31:58;5.50;99.90
24814;DHT22;12904;50.088;11.414;2024-01-30T11:34:24;5.60;99.90
24814;DHT22;12904;50.088;11.414;2024-01-30T11:36:57;5.60;99.90
24814;DHT22;12904;50.088;11.414;2024-01-30T11:39:26;5.60;99.90
24814;DHT22;12904;50.088;11.414;2024-01-30T11:41:52;5.70;99.90
24814;DHT22;12904;50.088;11.414;2024-01-30T11:44:24;5.70;99.90
24814;DHT22;12904;50.088;11.414;2024-01-30T11:46:51;5.70;99.90
24814;DHT22;12904;50.088;11.414;2024-01-30T11:49:17;5.80;99.90
24814;DHT22;12904;50.088;11.414;2024-01-30T11:51:45;5.90;99.90
24814;DHT22;12904;50.088;11.414;2024-01-30T11:54:11;5.80;99.90
24814;DHT22;12904;50.088;11.414;2024-01-30T11:56:37;5.90;99.90
24814;DHT22;12904;50.088;11.414;2024-01-30T11:59:04;5.90;99.90
24814;DHT22;12904;50.088;11.414;2024-01-30T12:01:30;6.00;99.90
24814;DHT22;12904;50.088;11.414;2024-01-30T12:03:57;6.00;99.90
24814;DHT22;12904;50.088;11.414;2024-01-30T12:06:23;6.00;99.90
24814;DHT22;12904;50.088;11.414;2024-01-30T12:08:59;6.10;99.90
24814;DHT22;12904;50.088;11.414;2024-01-30T12:11:25;6.10;99.90
24814;DHT22;12904;50.088;11.414;2024-01-30T12:13:52;6.10;99.90
24814;DHT22;12904;50.088;11.414;2024-01-30T12:16:18;6.20;99.90
24814;DHT22;12904;50.088;11.414;2024-01-30T12:18:44;6.30;99.90
24814;DHT22;12904;50.088;11.414;2024-01-30T12:21:10;6.20;99.90
24814;DHT22;12904;50.088;11.414;2024-01-30T12:23:35;6.10;99.90
24814;DHT22;12904;50.088;11.414;2024-01-30T12:26:02;6.10;99.90
24814;DHT22;12904;50.088;11.414;2024-01-30T12:28:33;6.10;99.90
24814;DHT22;12904;50.088;11.414;2024-01-30T12:31:02;6.10;99.90
24814;DHT22;12904;50.088;11.414;2024-01-30T12:33:29;6.20;99.90
24814;DHT22;12904;50.088;11.414;2024-01-30T12:35:55;6.20;99.90
24814;DHT22;12904;50.088;11.414;2024-01-30T12:38:21;6.20;99.90
24814;DHT22;12904;50.088;11.414;2024-01-30T12:40:47;6.30;99.90
24814;DHT22;12904;50.088;11.414;2024-01-30T12:43:16;6.40;99.90
24814;DHT22;12904;50.088;11.414;2024-01-30T12:45:42;6.60;99.90
24814;DHT22;12904;50.088;11.414;2024-01-30T12:48:08;6.70;99.90
24814;DHT22;12904;50.088;11.414;2024-01-30T12:50:34;6.70;99.90
24814;DHT22;12904;50.088;11.414;2024-01-30T12:53:00;6.90;99.90
24814;DHT22;12904;50.088;11.414;2024-01-30T12:55:25;7.10;99.90
24814;DHT22;12904;50.088;11.414;2024-01-30T12:57:54;7.20;99.90
24814;DHT22;12904;50.088;11.414;2024-01-30T13:00:20;7.40;99.90
24814;DHT22;12904;50.088;11.414;2024-01-30T13:02:46;7.60;99.90
24814;DHT22;12904;50.088;11.414;2024-01-30T13:05:12;7.70;99.90
24814;DHT22;12904;50.088;11.414;2024-01-30T13:07:38;7.70;99.90
24814;DHT22;12904;50.088;11.414;2024-01-30T13:10:04;7.70;99.90
24814;DHT22;12904;50.088;11.414;2024-01-30T13:12:30;7.70;99.90
24814;DHT22;12904;50.088;11.414;2024-01-30T13:14:57;7.70;99.90
24814;DHT22;12904;50.088;11.414;2024-01-30T13:17:24;7.80;99.90
24814;DHT22;12904;50.088;11.414;2024-01-30T13:19:49;7.80;99.90
24814;DHT22;12904;50.088;11.414;2024-01-30T13:22:15;7.80;99.90
24814;DHT22;12904;50.088;11.414;2024-01-30T13:24:41;7.80;99.90
24814;DHT22;12904;50.088;11.414;2024-01-30T13:27:07;7.80;99.90
24814;DHT22;12904;50.088;11.414;2024-01-30T13:29:34;7.80;99.90
24814;DHT22;12904;50.088;11.414;2024-01-30T13:31:59;7.80;99.90
24814;DHT22;12904;50.088;11.414;2024-01-30T13:34:25;7.70;99.90
24814;DHT22;12904;50.088;11.414;2024-01-30T13:36:51;7.70;99.90
24814;DHT22;12904;50.088;11.414;2024-01-30T13:39:17;7.60;99.90
24814;DHT22;12904;50.088;11.414;2024-01-30T13:41:43;7.60;99.90
24814;DHT22;12904;50.088;11.414;2024-01-30T13:44:08;7.60;99.90
24814;DHT22;12904;50.088;11.414;2024-01-30T13:46:35;7.50;99.90
24814;DHT22;12904;50.088;11.414;2024-01-30T13:49:01;7.50;99.90
24814;DHT22;12904;50.088;11.414;2024-01-30T13:51:27;7.40;99.90
24814;DHT22;12904;50.088;11.414;2024-01-30T13:53:53;7.30;99.90
24814;DHT22;12904;50.088;11.414;2024-01-30T13:56:20;7.20;99.90
24814;DHT22;12904;50.088;11.414;2024-01-30T13:58:49;7.20;99.90
24814;DHT22;12904;50.088;11.414;2024-01-30T14:01:18;7.10;99.90
24814;DHT22;12904;50.088;11.414;2024-01-30T14:03:44;7.10;99.90
24814;DHT22;12904;50.088;11.414;2024-01-30T14:06:11;7.10;99.90
24814;DHT22;12904;50.088;11.414;2024-01-30T14:08:36;7.10;99.90
24814;DHT22;12904;50.088;11.414;2024-01-30T14:11:02;7.10;99.90
24814;DHT22;12904;50.088;11.414;2024-01-30T14:13:28;7.00;99.90
24814;DHT22;12904;50.088;11.414;2024-01-30T14:15:55;7.00;99.90
24814;DHT22;12904;50.088;11.414;2024-01-30T14:18:21;6.90;99.90
24814;DHT22;12904;50.088;11.414;2024-01-30T14:20:46;6.90;99.90
24814;DHT22;12904;50.088;11.414;2024-01-30T14:23:12;6.90;99.90
24814;DHT22;12904;50.088;11.414;2024-01-30T14:25:38;6.90;99.90
24814;DHT22;12904;50.088;11.414;2024-01-30T14:28:04;6.80;99.90
24814;DHT22;12904;50.088;11.414;2024-01-30T14:30:29;6.90;99.90
24814;DHT22;12904;50.088;11.414;2024-01-30T14:32:55;6.80;99.90
24814;DHT22;12904;50.088;11.414;2024-01-30T14:35:21;6.80;99.90
24814;DHT22;12904;50.088;11.414;2024-01-30T14:37:47;6.80;99.90
24814;DHT22;12904;50.088;11.414;2024-01-30T14:40:13;6.70;99.90
24814;DHT22;12904;50.088;11.414;2024-01-30T14:42:38;6.70;99.90
24814;DHT22;12904;50.088;11.414;2024-01-30T14:45:07;6.70;99.90
24814;DHT22;12904;50.088;11.414;2024-01-30T14:47:33;6.70;99.90
24814;DHT22;12904;50.088;11.414;2024-01-30T14:50:00;6.60;99.90
24814;DHT22;12904;50.088;11.414;2024-01-30T14:52:26;6.50;99.90
24814;DHT22;12904;50.088;11.414;2024-01-30T14:54:52;6.50;99.90
24814;DHT22;12904;50.088;11.414;2024-01-30T14:57:17;6.40;99.90
24814;DHT22;12904;50.088;11.414;2024-01-30T14:59:43;6.30;99.90
24814;DHT22;12904;50.088;11.414;2024-01-30T15:02:09;6.20;99.90
24814;DHT22;12904;50.088;11.414;2024-01-30T15:04:34;6.10;99.90
24814;DHT22;12904;50.088;11.414;2024-01-30T15:07:00;6.00;99.90
24814;DHT22;12904;50.088;11.414;2024-01-30T15:09:26;6.00;99.90
24814;DHT22;12904;50.088;11.414;2024-01-30T15:11:52;5.90;99.90
24814;DHT22;12904;50.088;11.414;2024-01-30T15:14:18;5.90;99.90
24814;DHT22;12904;50.088;11.414;2024-01-30T15:16:43;5.80;99.90
24814;DHT22;12904;50.088;11.414;2024-01-30T15:19:09;5.80;99.90
24814;DHT22;12904;50.088;11.414;2024-01-30T15:21:35;5.70;99.90
24814;DHT22;12904;50.088;11.414;2024-01-30T15:24:02;5.70;99.90
24814;DHT22;12904;50.088;11.414;2024-01-30T15:26:28;5.60;99.90